الصفحة الرئيسية
METAR-TAF:

METAR-TAF

مطار :

مطار دالاس فورت ورث الدولي

دالاس / فورت وورث, تكساس, الولايات المتحدة

دائرة عرض: 32-53-49N, خط طول: 097-01-19W, ارتفاع: 183 متر

مراقبة الطقس الحالي

تاريخ ووقت الإصدار 16 دقيقة قبل الساعة 22:53UTC
ريح 13 عقدة من الشمال
درجة الحرارة 21°درجة مئوية
الرطوبة 43%
ضغط 1023 hPa
الرؤية: 16.1 كم
غيوم قليلة على ارتفاع 14000 قدم
غيوم قليلة على ارتفاع 20000 قدم
غيوم متفرقة على ارتفاع 25000 قدم

METAR: KDFW 202253Z 01013KT 10SM FEW140 FEW200 SCT250 21/08 A3022 RMK AO2 SLP228 T02060083

زمن: 18:09 (23:09 UTC)

توقعات

تاريخ ووقت الإصدار 2ساعات و 17 دقيقة قبل الساعة 20:52UTC
التوقعات صالحة من20 الساعة 21 UTC إلى 21 الساعة 24 UTC
ريح 15 عقدة من الشمال/الشمال الشرقي
الرؤية: 10 كم
غيوم قليلة على ارتفاع 15000 قدم
غيوم متفرقة على ارتفاع 30000 قدم
من 21 الساعة 0200 UTC
ريح 8 عقدة من الشمال
الرؤية: 10 كم
غيوم متفرقة على ارتفاع 30000 قدم
من 21 الساعة 1500 UTC
ريح 7 عقدة من الشرق/الشمال الشرقي
الرؤية: 10 كم
غيوم مفككة على ارتفاع 25000 قدم

TAF: KDFW 202052Z 2021/2124 02015KT P6SM FEW150 SCT300 FM210200 01008KT P6SM SCT300 FM211500 07007KT P6SM BKN250

أرصاد الطقس والتوقعات من أكثر من 4000 مطار (تقارير الطقس للمطار METAR والتنبؤ بالطقس بالمطارTAF).

المحطات المتاحة هي النقط الصفراء والحمراء على الخريطة.

حرك المؤشر فوق النقطة لمعرفة اسم المحطة.

ثم انقر لمعرفة أرصاد وتوقعات الطقس.

لتغيير الخارطة: اضغط على الأزرار الخضراء مع رمز الصليب الأسود للتكبير. على الزر الأخضر مع شرطة للتصغير، أو على الأسهم الخضراء للخرائط المجاورة.


METAR-TAF: